sensor_id;sensor_type;location;lat;lon;timestamp;temperature;humidity
64855;DHT22;51321;50.428;8.378;2023-02-04T00:01:45;7.00;99.90
64855;DHT22;51321;50.428;8.378;2023-02-04T00:04:26;7.00;99.90
64855;DHT22;51321;50.428;8.378;2023-02-04T00:07:06;7.00;99.90
64855;DHT22;51321;50.428;8.378;2023-02-04T00:09:47;7.00;99.90
64855;DHT22;51321;50.428;8.378;2023-02-04T00:12:31;7.00;99.90
64855;DHT22;51321;50.428;8.378;2023-02-04T00:15:12;6.80;99.90
64855;DHT22;51321;50.428;8.378;2023-02-04T00:17:53;6.80;99.90
64855;DHT22;51321;50.428;8.378;2023-02-04T00:20:34;6.80;99.90
64855;DHT22;51321;50.428;8.378;2023-02-04T00:23:17;6.70;99.90
64855;DHT22;51321;50.428;8.378;2023-02-04T00:25:58;6.60;99.90
64855;DHT22;51321;50.428;8.378;2023-02-04T00:28:41;6.70;99.90
64855;DHT22;51321;50.428;8.378;2023-02-04T00:31:23;6.70;99.90
64855;DHT22;51321;50.428;8.378;2023-02-04T00:34:03;6.80;99.90
64855;DHT22;51321;50.428;8.378;2023-02-04T00:36:44;6.70;99.90
64855;DHT22;51321;50.428;8.378;2023-02-04T00:39:25;6.80;99.90
64855;DHT22;51321;50.428;8.378;2023-02-04T00:42:06;6.70;99.90
64855;DHT22;51321;50.428;8.378;2023-02-04T00:44:50;6.70;99.90
64855;DHT22;51321;50.428;8.378;2023-02-04T00:47:31;6.70;99.90
64855;DHT22;51321;50.428;8.378;2023-02-04T00:50:12;6.80;99.90
64855;DHT22;51321;50.428;8.378;2023-02-04T00:52:52;6.70;99.90
64855;DHT22;51321;50.428;8.378;2023-02-04T00:55:33;6.70;99.90
64855;DHT22;51321;50.428;8.378;2023-02-04T00:58:14;6.70;99.90
64855;DHT22;51321;50.428;8.378;2023-02-04T01:00:56;6.70;99.90
64855;DHT22;51321;50.428;8.378;2023-02-04T01:03:38;6.60;99.90
64855;DHT22;51321;50.428;8.378;2023-02-04T01:06:18;6.70;99.90
64855;DHT22;51321;50.428;8.378;2023-02-04T01:08:59;6.70;99.90
64855;DHT22;51321;50.428;8.378;2023-02-04T01:11:40;6.60;99.90
64855;DHT22;51321;50.428;8.378;2023-02-04T01:14:21;6.70;99.90
64855;DHT22;51321;50.428;8.378;2023-02-04T01:17:03;6.70;99.90
64855;DHT22;51321;50.428;8.378;2023-02-04T01:19:43;6.70;99.90
64855;DHT22;51321;50.428;8.378;2023-02-04T01:22:24;6.70;99.90
64855;DHT22;51321;50.428;8.378;2023-02-04T01:25:06;6.60;99.90
64855;DHT22;51321;50.428;8.378;2023-02-04T01:27:53;6.60;99.90
64855;DHT22;51321;50.428;8.378;2023-02-04T01:30:33;6.60;99.90
64855;DHT22;51321;50.428;8.378;2023-02-04T01:33:16;6.70;99.90
64855;DHT22;51321;50.428;8.378;2023-02-04T01:35:56;6.60;99.90
64855;DHT22;51321;50.428;8.378;2023-02-04T01:38:37;6.60;99.90
64855;DHT22;51321;50.428;8.378;2023-02-04T01:41:18;6.60;99.90
64855;DHT22;51321;50.428;8.378;2023-02-04T01:44:01;6.50;99.90
64855;DHT22;51321;50.428;8.378;2023-02-04T01:46:42;6.50;99.90
64855;DHT22;51321;50.428;8.378;2023-02-04T01:49:24;6.40;99.90
64855;DHT22;51321;50.428;8.378;2023-02-04T01:52:07;6.40;99.90
64855;DHT22;51321;50.428;8.378;2023-02-04T01:54:49;6.40;99.90
64855;DHT22;51321;50.428;8.378;2023-02-04T01:57:33;6.30;99.90
64855;DHT22;51321;50.428;8.378;2023-02-04T02:00:16;6.30;99.90
64855;DHT22;51321;50.428;8.378;2023-02-04T02:03:00;6.30;99.90
64855;DHT22;51321;50.428;8.378;2023-02-04T02:05:46;6.20;99.90
64855;DHT22;51321;50.428;8.378;2023-02-04T02:08:27;6.20;99.90
64855;DHT22;51321;50.428;8.378;2023-02-04T02:11:09;6.10;99.90
64855;DHT22;51321;50.428;8.378;2023-02-04T02:13:49;6.10;99.90
64855;DHT22;51321;50.428;8.378;2023-02-04T02:16:30;5.90;99.90
64855;DHT22;51321;50.428;8.378;2023-02-04T02:19:15;6.00;99.90
64855;DHT22;51321;50.428;8.378;2023-02-04T02:22:03;6.10;99.90
64855;DHT22;51321;50.428;8.378;2023-02-04T02:24:46;6.10;99.90
64855;DHT22;51321;50.428;8.378;2023-02-04T02:27:27;6.10;99.90
64855;DHT22;51321;50.428;8.378;2023-02-04T02:30:11;6.10;99.90
64855;DHT22;51321;50.428;8.378;2023-02-04T02:32:53;6.10;99.90
64855;DHT22;51321;50.428;8.378;2023-02-04T02:35:35;5.90;99.90
64855;DHT22;51321;50.428;8.378;2023-02-04T02:38:17;6.00;99.90
64855;DHT22;51321;50.428;8.378;2023-02-04T02:40:59;6.10;99.90
64855;DHT22;51321;50.428;8.378;2023-02-04T02:43:41;6.10;99.90
64855;DHT22;51321;50.428;8.378;2023-02-04T02:46:22;6.10;99.90
64855;DHT22;51321;50.428;8.378;2023-02-04T02:49:03;6.10;99.90
64855;DHT22;51321;50.428;8.378;2023-02-04T02:51:44;6.20;99.90
64855;DHT22;51321;50.428;8.378;2023-02-04T02:54:28;6.20;99.90
64855;DHT22;51321;50.428;8.378;2023-02-04T02:57:16;6.30;99.90
64855;DHT22;51321;50.428;8.378;2023-02-04T02:59:59;6.20;99.90
64855;DHT22;51321;50.428;8.378;2023-02-04T03:02:39;6.20;99.90
64855;DHT22;51321;50.428;8.378;2023-02-04T03:05:22;6.30;99.90
64855;DHT22;51321;50.428;8.378;2023-02-04T03:08:04;6.30;99.90
64855;DHT22;51321;50.428;8.378;2023-02-04T03:10:45;6.20;99.90
64855;DHT22;51321;50.428;8.378;2023-02-04T03:13:27;6.10;99.90
64855;DHT22;51321;50.428;8.378;2023-02-04T03:16:09;6.20;99.90
64855;DHT22;51321;50.428;8.378;2023-02-04T03:18:50;6.10;99.90
64855;DHT22;51321;50.428;8.378;2023-02-04T03:21:31;6.10;99.90
64855;DHT22;51321;50.428;8.378;2023-02-04T03:24:12;6.20;99.90
64855;DHT22;51321;50.428;8.378;2023-02-04T03:26:54;6.30;99.90
64855;DHT22;51321;50.428;8.378;2023-02-04T03:29:41;6.30;99.90
64855;DHT22;51321;50.428;8.378;2023-02-04T03:32:22;6.10;99.90
64855;DHT22;51321;50.428;8.378;2023-02-04T03:35:03;6.10;99.90
64855;DHT22;51321;50.428;8.378;2023-02-04T03:37:44;6.10;99.90
64855;DHT22;51321;50.428;8.378;2023-02-04T03:40:24;6.10;99.90
64855;DHT22;51321;50.428;8.378;2023-02-04T03:43:05;6.20;99.90
64855;DHT22;51321;50.428;8.378;2023-02-04T03:45:47;6.10;99.90
64855;DHT22;51321;50.428;8.378;2023-02-04T03:48:28;6.10;99.90
64855;DHT22;51321;50.428;8.378;2023-02-04T03:51:09;6.20;99.90
64855;DHT22;51321;50.428;8.378;2023-02-04T03:53:50;6.10;99.90
64855;DHT22;51321;50.428;8.378;2023-02-04T03:56:30;6.10;99.90
64855;DHT22;51321;50.428;8.378;2023-02-04T03:59:12;5.90;99.90
64855;DHT22;51321;50.428;8.378;2023-02-04T04:01:54;5.80;99.90
64855;DHT22;51321;50.428;8.378;2023-02-04T04:04:35;5.80;99.90
64855;DHT22;51321;50.428;8.378;2023-02-04T04:07:15;5.80;99.90
64855;DHT22;51321;50.428;8.378;2023-02-04T04:09:56;5.90;99.90
64855;DHT22;51321;50.428;8.378;2023-02-04T04:12:37;5.80;99.90
64855;DHT22;51321;50.428;8.378;2023-02-04T04:15:18;5.80;99.90
64855;DHT22;51321;50.428;8.378;2023-02-04T04:18:00;5.70;99.90
64855;DHT22;51321;50.428;8.378;2023-02-04T04:20:43;5.70;99.90
64855;DHT22;51321;50.428;8.378;2023-02-04T04:23:23;5.70;99.90
64855;DHT22;51321;50.428;8.378;2023-02-04T04:26:04;5.70;99.90
64855;DHT22;51321;50.428;8.378;2023-02-04T04:28:45;5.60;99.90
64855;DHT22;51321;50.428;8.378;2023-02-04T04:31:27;5.50;99.90
64855;DHT22;51321;50.428;8.378;2023-02-04T04:34:09;5.50;99.90
64855;DHT22;51321;50.428;8.378;2023-02-04T04:36:50;5.40;99.90
64855;DHT22;51321;50.428;8.378;2023-02-04T04:39:31;5.40;99.90
64855;DHT22;51321;50.428;8.378;2023-02-04T04:42:12;5.40;99.90
64855;DHT22;51321;50.428;8.378;2023-02-04T04:44:53;5.30;99.90
64855;DHT22;51321;50.428;8.378;2023-02-04T04:47:34;5.30;99.90
64855;DHT22;51321;50.428;8.378;2023-02-04T04:50:16;5.30;99.90
64855;DHT22;51321;50.428;8.378;2023-02-04T04:52:57;5.30;99.90
64855;DHT22;51321;50.428;8.378;2023-02-04T04:55:37;5.20;99.90
64855;DHT22;51321;50.428;8.378;2023-02-04T04:58:18;5.20;99.90
64855;DHT22;51321;50.428;8.378;2023-02-04T05:00:59;5.20;99.90
64855;DHT22;51321;50.428;8.378;2023-02-04T05:03:40;5.30;99.90
64855;DHT22;51321;50.428;8.378;2023-02-04T05:06:23;5.30;99.90
64855;DHT22;51321;50.428;8.378;2023-02-04T05:09:04;5.30;99.90
64855;DHT22;51321;50.428;8.378;2023-02-04T05:11:45;5.30;99.90
64855;DHT22;51321;50.428;8.378;2023-02-04T05:14:26;5.60;99.90
64855;DHT22;51321;50.428;8.378;2023-02-04T05:17:06;5.50;99.90
64855;DHT22;51321;50.428;8.378;2023-02-04T05:19:47;5.40;99.90
64855;DHT22;51321;50.428;8.378;2023-02-04T05:22:30;5.50;99.90
64855;DHT22;51321;50.428;8.378;2023-02-04T05:25:11;5.40;99.90
64855;DHT22;51321;50.428;8.378;2023-02-04T05:27:55;5.40;99.90
64855;DHT22;51321;50.428;8.378;2023-02-04T05:30:35;5.50;99.90
64855;DHT22;51321;50.428;8.378;2023-02-04T05:33:16;5.50;99.90
64855;DHT22;51321;50.428;8.378;2023-02-04T05:35:57;5.50;99.90
64855;DHT22;51321;50.428;8.378;2023-02-04T05:38:39;5.40;99.90
64855;DHT22;51321;50.428;8.378;2023-02-04T05:41:20;5.50;99.90
64855;DHT22;51321;50.428;8.378;2023-02-04T05:44:02;5.50;99.90
64855;DHT22;51321;50.428;8.378;2023-02-04T05:46:43;5.60;99.90
64855;DHT22;51321;50.428;8.378;2023-02-04T05:49:23;5.60;99.90
64855;DHT22;51321;50.428;8.378;2023-02-04T05:52:04;5.50;99.90
64855;DHT22;51321;50.428;8.378;2023-02-04T05:54:47;5.50;99.90
64855;DHT22;51321;50.428;8.378;2023-02-04T05:57:27;5.50;99.90
64855;DHT22;51321;50.428;8.378;2023-02-04T06:00:10;5.50;99.90
64855;DHT22;51321;50.428;8.378;2023-02-04T06:02:54;5.50;99.90
64855;DHT22;51321;50.428;8.378;2023-02-04T06:05:35;5.50;99.90
64855;DHT22;51321;50.428;8.378;2023-02-04T06:08:15;5.50;99.90
64855;DHT22;51321;50.428;8.378;2023-02-04T06:10:57;5.50;99.90
64855;DHT22;51321;50.428;8.378;2023-02-04T06:13:38;5.50;99.90
64855;DHT22;51321;50.428;8.378;2023-02-04T06:16:18;5.60;99.90
64855;DHT22;51321;50.428;8.378;2023-02-04T06:18:59;5.60;99.90
64855;DHT22;51321;50.428;8.378;2023-02-04T06:21:40;5.60;99.90
64855;DHT22;51321;50.428;8.378;2023-02-04T06:24:20;5.70;99.90
64855;DHT22;51321;50.428;8.378;2023-02-04T06:27:03;5.60;99.90
64855;DHT22;51321;50.428;8.378;2023-02-04T06:29:44;5.50;99.90
64855;DHT22;51321;50.428;8.378;2023-02-04T06:32:24;5.50;99.90
64855;DHT22;51321;50.428;8.378;2023-02-04T06:35:06;5.40;99.90
64855;DHT22;51321;50.428;8.378;2023-02-04T06:37:47;5.50;99.90
64855;DHT22;51321;50.428;8.378;2023-02-04T06:40:28;5.50;99.90
64855;DHT22;51321;50.428;8.378;2023-02-04T06:43:11;5.50;99.90
64855;DHT22;51321;50.428;8.378;2023-02-04T06:45:51;5.50;99.90
64855;DHT22;51321;50.428;8.378;2023-02-04T06:48:32;5.60;99.90
64855;DHT22;51321;50.428;8.378;2023-02-04T06:51:13;5.50;99.90
64855;DHT22;51321;50.428;8.378;2023-02-04T06:53:54;5.50;99.90
64855;DHT22;51321;50.428;8.378;2023-02-04T06:56:34;5.50;99.90
64855;DHT22;51321;50.428;8.378;2023-02-04T06:59:17;5.50;99.90
64855;DHT22;51321;50.428;8.378;2023-02-04T07:01:58;5.50;99.90
64855;DHT22;51321;50.428;8.378;2023-02-04T07:04:38;5.50;99.90
64855;DHT22;51321;50.428;8.378;2023-02-04T07:07:20;5.40;99.90
64855;DHT22;51321;50.428;8.378;2023-02-04T07:10:01;5.40;99.90
64855;DHT22;51321;50.428;8.378;2023-02-04T07:12:41;5.40;99.90
64855;DHT22;51321;50.428;8.378;2023-02-04T07:15:23;5.40;99.90
64855;DHT22;51321;50.428;8.378;2023-02-04T07:18:05;5.40;99.90
64855;DHT22;51321;50.428;8.378;2023-02-04T07:20:45;5.50;99.90
64855;DHT22;51321;50.428;8.378;2023-02-04T07:23:26;5.60;99.90
64855;DHT22;51321;50.428;8.378;2023-02-04T07:26:07;5.60;99.90
64855;DHT22;51321;50.428;8.378;2023-02-04T07:28:48;5.60;99.90
64855;DHT22;51321;50.428;8.378;2023-02-04T07:31:30;5.50;99.90
64855;DHT22;51321;50.428;8.378;2023-02-04T07:34:11;5.50;99.90
64855;DHT22;51321;50.428;8.378;2023-02-04T07:36:52;5.40;99.90
64855;DHT22;51321;50.428;8.378;2023-02-04T07:39:32;5.50;99.90
64855;DHT22;51321;50.428;8.378;2023-02-04T07:42:13;5.70;99.90
64855;DHT22;51321;50.428;8.378;2023-02-04T07:45:03;5.80;99.90
64855;DHT22;51321;50.428;8.378;2023-02-04T07:47:48;5.80;99.90
64855;DHT22;51321;50.428;8.378;2023-02-04T07:50:29;5.90;99.90
64855;DHT22;51321;50.428;8.378;2023-02-04T07:53:10;6.00;99.90
64855;DHT22;51321;50.428;8.378;2023-02-04T07:55:50;6.20;99.90
64855;DHT22;51321;50.428;8.378;2023-02-04T07:58:31;6.20;99.90
64855;DHT22;51321;50.428;8.378;2023-02-04T08:01:12;6.30;99.90
64855;DHT22;51321;50.428;8.378;2023-02-04T08:03:54;6.30;99.90
64855;DHT22;51321;50.428;8.378;2023-02-04T08:06:35;6.40;99.90
64855;DHT22;51321;50.428;8.378;2023-02-04T08:09:15;6.50;99.90
64855;DHT22;51321;50.428;8.378;2023-02-04T08:11:56;6.50;99.90
64855;DHT22;51321;50.428;8.378;2023-02-04T08:14:39;6.50;99.90
64855;DHT22;51321;50.428;8.378;2023-02-04T08:17:19;6.60;99.90
64855;DHT22;51321;50.428;8.378;2023-02-04T08:20:01;6.70;99.90
64855;DHT22;51321;50.428;8.378;2023-02-04T08:22:42;6.80;99.90
64855;DHT22;51321;50.428;8.378;2023-02-04T08:25:23;7.00;99.90
64855;DHT22;51321;50.428;8.378;2023-02-04T08:28:04;7.20;99.90
64855;DHT22;51321;50.428;8.378;2023-02-04T08:30:45;7.20;99.90
64855;DHT22;51321;50.428;8.378;2023-02-04T08:33:26;7.20;99.90
64855;DHT22;51321;50.428;8.378;2023-02-04T08:36:08;7.10;99.90
64855;DHT22;51321;50.428;8.378;2023-02-04T08:38:49;7.10;99.90
64855;DHT22;51321;50.428;8.378;2023-02-04T08:41:31;7.10;99.90
64855;DHT22;51321;50.428;8.378;2023-02-04T08:44:12;7.00;99.90
64855;DHT22;51321;50.428;8.378;2023-02-04T08:46:53;7.00;99.90
64855;DHT22;51321;50.428;8.378;2023-02-04T08:49:34;7.00;99.90
64855;DHT22;51321;50.428;8.378;2023-02-04T08:52:16;7.00;99.90
64855;DHT22;51321;50.428;8.378;2023-02-04T08:54:57;7.10;99.90
64855;DHT22;51321;50.428;8.378;2023-02-04T08:57:37;7.10;99.90
64855;DHT22;51321;50.428;8.378;2023-02-04T09:00:18;7.20;99.90
64855;DHT22;51321;50.428;8.378;2023-02-04T09:02:59;7.20;99.90
64855;DHT22;51321;50.428;8.378;2023-02-04T09:05:39;7.20;99.90
64855;DHT22;51321;50.428;8.378;2023-02-04T09:08:21;7.30;99.90
64855;DHT22;51321;50.428;8.378;2023-02-04T09:11:03;7.40;99.90
64855;DHT22;51321;50.428;8.378;2023-02-04T09:13:44;7.40;99.90
64855;DHT22;51321;50.428;8.378;2023-02-04T09:16:24;7.40;99.90
64855;DHT22;51321;50.428;8.378;2023-02-04T09:19:05;7.40;99.90
64855;DHT22;51321;50.428;8.378;2023-02-04T09:21:47;7.60;99.90
64855;DHT22;51321;50.428;8.378;2023-02-04T09:24:29;7.60;99.90
64855;DHT22;51321;50.428;8.378;2023-02-04T09:27:09;7.70;99.90
64855;DHT22;51321;50.428;8.378;2023-02-04T09:29:50;7.70;99.90
64855;DHT22;51321;50.428;8.378;2023-02-04T09:32:31;7.70;99.90
64855;DHT22;51321;50.428;8.378;2023-02-04T09:35:11;7.80;99.90
64855;DHT22;51321;50.428;8.378;2023-02-04T09:37:52;8.10;99.90
64855;DHT22;51321;50.428;8.378;2023-02-04T09:40:36;8.50;99.90
64855;DHT22;51321;50.428;8.378;2023-02-04T09:43:22;8.80;99.90
64855;DHT22;51321;50.428;8.378;2023-02-04T09:46:04;9.00;99.90
64855;DHT22;51321;50.428;8.378;2023-02-04T09:48:45;9.50;99.90
64855;DHT22;51321;50.428;8.378;2023-02-04T09:51:28;9.80;99.90
64855;DHT22;51321;50.428;8.378;2023-02-04T09:54:10;10.10;99.90
64855;DHT22;51321;50.428;8.378;2023-02-04T09:56:53;10.30;99.90
64855;DHT22;51321;50.428;8.378;2023-02-04T09:59:35;10.10;99.90
64855;DHT22;51321;50.428;8.378;2023-02-04T10:02:21;10.00;99.90
64855;DHT22;51321;50.428;8.378;2023-02-04T10:05:05;9.50;99.90
64855;DHT22;51321;50.428;8.378;2023-02-04T10:07:46;9.30;99.90
64855;DHT22;51321;50.428;8.378;2023-02-04T10:10:27;9.20;99.90
64855;DHT22;51321;50.428;8.378;2023-02-04T10:13:15;8.90;99.90
64855;DHT22;51321;50.428;8.378;2023-02-04T10:15:57;8.80;99.90
64855;DHT22;51321;50.428;8.378;2023-02-04T10:18:39;8.70;99.90
64855;DHT22;51321;50.428;8.378;2023-02-04T10:21:23;8.70;99.90
64855;DHT22;51321;50.428;8.378;2023-02-04T10:24:14;8.90;99.90
64855;DHT22;51321;50.428;8.378;2023-02-04T10:27:06;8.60;99.90
64855;DHT22;51321;50.428;8.378;2023-02-04T10:29:55;8.60;99.90
64855;DHT22;51321;50.428;8.378;2023-02-04T10:32:36;8.40;99.90
64855;DHT22;51321;50.428;8.378;2023-02-04T10:35:19;8.30;99.90
64855;DHT22;51321;50.428;8.378;2023-02-04T10:38:04;8.30;99.90
64855;DHT22;51321;50.428;8.378;2023-02-04T10:40:45;8.40;99.90
64855;DHT22;51321;50.428;8.378;2023-02-04T10:43:26;8.50;99.90
64855;DHT22;51321;50.428;8.378;2023-02-04T10:46:08;8.50;99.90
64855;DHT22;51321;50.428;8.378;2023-02-04T10:48:49;8.60;99.90
64855;DHT22;51321;50.428;8.378;2023-02-04T10:51:30;9.00;99.90
64855;DHT22;51321;50.428;8.378;2023-02-04T10:54:12;9.20;99.90
64855;DHT22;51321;50.428;8.378;2023-02-04T10:57:16;9.20;99.90
64855;DHT22;51321;50.428;8.378;2023-02-04T11:00:00;8.90;99.90
64855;DHT22;51321;50.428;8.378;2023-02-04T11:02:42;8.70;99.90
64855;DHT22;51321;50.428;8.378;2023-02-04T11:05:29;8.70;99.90
64855;DHT22;51321;50.428;8.378;2023-02-04T11:08:19;9.10;99.90
64855;DHT22;51321;50.428;8.378;2023-02-04T11:11:03;9.60;99.90
64855;DHT22;51321;50.428;8.378;2023-02-04T11:13:57;9.90;99.90
64855;DHT22;51321;50.428;8.378;2023-02-04T11:16:46;9.90;99.90
64855;DHT22;51321;50.428;8.378;2023-02-04T11:19:34;10.00;99.90
64855;DHT22;51321;50.428;8.378;2023-02-04T11:22:23;10.10;99.90
64855;DHT22;51321;50.428;8.378;2023-02-04T11:25:31;10.10;99.90
64855;DHT22;51321;50.428;8.378;2023-02-04T11:28:13;10.00;99.90
64855;DHT22;51321;50.428;8.378;2023-02-04T11:30:58;9.90;99.90
64855;DHT22;51321;50.428;8.378;2023-02-04T11:33:40;10.00;99.90
64855;DHT22;51321;50.428;8.378;2023-02-04T11:36:23;9.60;99.90
64855;DHT22;51321;50.428;8.378;2023-02-04T11:39:12;9.60;99.90
64855;DHT22;51321;50.428;8.378;2023-02-04T11:41:55;9.50;99.90
64855;DHT22;51321;50.428;8.378;2023-02-04T11:44:37;9.50;99.90
64855;DHT22;51321;50.428;8.378;2023-02-04T11:47:19;9.50;99.90
64855;DHT22;51321;50.428;8.378;2023-02-04T11:50:03;9.60;99.90
64855;DHT22;51321;50.428;8.378;2023-02-04T11:52:45;9.50;99.90
64855;DHT22;51321;50.428;8.378;2023-02-04T11:55:25;9.30;99.90
64855;DHT22;51321;50.428;8.378;2023-02-04T11:58:13;9.10;99.90
64855;DHT22;51321;50.428;8.378;2023-02-04T12:00:54;9.30;99.90
64855;DHT22;51321;50.428;8.378;2023-02-04T12:03:45;9.50;99.90
64855;DHT22;51321;50.428;8.378;2023-02-04T12:06:28;9.40;99.90
64855;DHT22;51321;50.428;8.378;2023-02-04T12:09:22;9.50;99.90
64855;DHT22;51321;50.428;8.378;2023-02-04T12:12:03;9.70;99.90
64855;DHT22;51321;50.428;8.378;2023-02-04T12:14:44;10.00;99.90
64855;DHT22;51321;50.428;8.378;2023-02-04T12:17:35;10.30;99.90
64855;DHT22;51321;50.428;8.378;2023-02-04T12:20:16;10.40;99.90
64855;DHT22;51321;50.428;8.378;2023-02-04T12:22:57;10.50;99.90
64855;DHT22;51321;50.428;8.378;2023-02-04T12:25:39;10.50;99.90
64855;DHT22;51321;50.428;8.378;2023-02-04T12:28:21;10.40;99.90
64855;DHT22;51321;50.428;8.378;2023-02-04T12:31:02;10.20;99.90
64855;DHT22;51321;50.428;8.378;2023-02-04T12:33:43;10.00;99.90
64855;DHT22;51321;50.428;8.378;2023-02-04T12:36:25;10.00;99.90
64855;DHT22;51321;50.428;8.378;2023-02-04T12:39:07;10.00;99.90
64855;DHT22;51321;50.428;8.378;2023-02-04T12:41:50;10.00;99.90
64855;DHT22;51321;50.428;8.378;2023-02-04T12:44:31;10.00;99.90
64855;DHT22;51321;50.428;8.378;2023-02-04T12:47:14;10.00;99.90
64855;DHT22;51321;50.428;8.378;2023-02-04T12:49:54;10.00;99.90
64855;DHT22;51321;50.428;8.378;2023-02-04T12:52:35;10.30;99.90
64855;DHT22;51321;50.428;8.378;2023-02-04T12:55:17;10.70;99.90
64855;DHT22;51321;50.428;8.378;2023-02-04T12:58:00;11.00;99.90
64855;DHT22;51321;50.428;8.378;2023-02-04T13:00:41;11.00;99.90
64855;DHT22;51321;50.428;8.378;2023-02-04T13:03:23;10.30;99.90
64855;DHT22;51321;50.428;8.378;2023-02-04T13:06:04;10.00;99.90
64855;DHT22;51321;50.428;8.378;2023-02-04T13:08:45;9.80;99.90
64855;DHT22;51321;50.428;8.378;2023-02-04T13:11:26;9.70;99.90
64855;DHT22;51321;50.428;8.378;2023-02-04T13:14:08;9.70;99.90
64855;DHT22;51321;50.428;8.378;2023-02-04T13:16:48;9.50;99.90
64855;DHT22;51321;50.428;8.378;2023-02-04T13:19:29;9.40;99.90
64855;DHT22;51321;50.428;8.378;2023-02-04T13:22:10;9.20;99.90
64855;DHT22;51321;50.428;8.378;2023-02-04T13:24:51;9.20;99.90
64855;DHT22;51321;50.428;8.378;2023-02-04T13:27:32;9.00;99.90
64855;DHT22;51321;50.428;8.378;2023-02-04T13:30:15;8.90;99.90
64855;DHT22;51321;50.428;8.378;2023-02-04T13:32:55;8.90;99.90
64855;DHT22;51321;50.428;8.378;2023-02-04T13:35:36;8.90;99.90
64855;DHT22;51321;50.428;8.378;2023-02-04T13:38:17;9.00;99.90
64855;DHT22;51321;50.428;8.378;2023-02-04T13:40:58;9.00;99.90
64855;DHT22;51321;50.428;8.378;2023-02-04T13:43:39;9.10;99.90
64855;DHT22;51321;50.428;8.378;2023-02-04T13:46:21;9.10;99.90
64855;DHT22;51321;50.428;8.378;2023-02-04T13:49:02;9.10;99.90
64855;DHT22;51321;50.428;8.378;2023-02-04T13:51:43;9.30;99.90
64855;DHT22;51321;50.428;8.378;2023-02-04T13:54:24;9.30;99.90
64855;DHT22;51321;50.428;8.378;2023-02-04T13:57:05;9.20;99.90
64855;DHT22;51321;50.428;8.378;2023-02-04T13:59:46;9.30;99.90
64855;DHT22;51321;50.428;8.378;2023-02-04T14:02:28;9.30;99.90
64855;DHT22;51321;50.428;8.378;2023-02-04T14:05:09;9.30;99.90
64855;DHT22;51321;50.428;8.378;2023-02-04T14:07:50;9.30;99.90
64855;DHT22;51321;50.428;8.378;2023-02-04T14:10:31;9.20;99.90
64855;DHT22;51321;50.428;8.378;2023-02-04T14:13:11;9.10;99.90
64855;DHT22;51321;50.428;8.378;2023-02-04T14:15:55;9.00;99.90
64855;DHT22;51321;50.428;8.378;2023-02-04T14:18:37;9.00;99.90
64855;DHT22;51321;50.428;8.378;2023-02-04T14:21:18;9.00;99.90
64855;DHT22;51321;50.428;8.378;2023-02-04T14:23:59;9.10;99.90
64855;DHT22;51321;50.428;8.378;2023-02-04T14:26:41;9.00;99.90
64855;DHT22;51321;50.428;8.378;2023-02-04T14:29:22;9.00;99.90
64855;DHT22;51321;50.428;8.378;2023-02-04T14:32:03;8.90;99.90
64855;DHT22;51321;50.428;8.378;2023-02-04T14:34:45;8.90;99.90
64855;DHT22;51321;50.428;8.378;2023-02-04T14:37:26;8.90;99.90
64855;DHT22;51321;50.428;8.378;2023-02-04T14:40:09;8.90;99.90
64855;DHT22;51321;50.428;8.378;2023-02-04T14:42:50;8.90;99.90
64855;DHT22;51321;50.428;8.378;2023-02-04T14:45:31;8.80;99.90
64855;DHT22;51321;50.428;8.378;2023-02-04T14:48:12;8.80;99.90
64855;DHT22;51321;50.428;8.378;2023-02-04T14:50:54;8.80;99.90
64855;DHT22;51321;50.428;8.378;2023-02-04T14:53:35;8.80;99.90
64855;DHT22;51321;50.428;8.378;2023-02-04T14:56:16;8.70;99.90
64855;DHT22;51321;50.428;8.378;2023-02-04T14:58:58;8.60;99.90
64855;DHT22;51321;50.428;8.378;2023-02-04T15:01:39;8.60;99.90
64855;DHT22;51321;50.428;8.378;2023-02-04T15:04:23;8.60;99.90
64855;DHT22;51321;50.428;8.378;2023-02-04T15:07:05;8.60;99.90
64855;DHT22;51321;50.428;8.378;2023-02-04T15:09:46;8.60;99.90
64855;DHT22;51321;50.428;8.378;2023-02-04T15:12:27;8.50;99.90
64855;DHT22;51321;50.428;8.378;2023-02-04T15:15:08;8.50;99.90
64855;DHT22;51321;50.428;8.378;2023-02-04T15:17:49;8.40;99.90
64855;DHT22;51321;50.428;8.378;2023-02-04T15:20:30;8.40;99.90
64855;DHT22;51321;50.428;8.378;2023-02-04T15:23:13;8.30;99.90
64855;DHT22;51321;50.428;8.378;2023-02-04T15:25:53;8.20;99.90
64855;DHT22;51321;50.428;8.378;2023-02-04T15:28:36;8.00;99.90
64855;DHT22;51321;50.428;8.378;2023-02-04T15:31:17;7.80;99.90
64855;DHT22;51321;50.428;8.378;2023-02-04T15:33:57;7.80;99.90
64855;DHT22;51321;50.428;8.378;2023-02-04T15:36:38;7.80;99.90
64855;DHT22;51321;50.428;8.378;2023-02-04T15:39:20;7.70;99.90
64855;DHT22;51321;50.428;8.378;2023-02-04T15:42:01;7.60;99.90
64855;DHT22;51321;50.428;8.378;2023-02-04T15:44:43;7.60;99.90
64855;DHT22;51321;50.428;8.378;2023-02-04T15:47:24;7.50;99.90
64855;DHT22;51321;50.428;8.378;2023-02-04T15:50:05;7.40;99.90
64855;DHT22;51321;50.428;8.378;2023-02-04T15:52:48;7.30;99.90
64855;DHT22;51321;50.428;8.378;2023-02-04T15:55:31;7.20;99.90
64855;DHT22;51321;50.428;8.378;2023-02-04T15:58:12;7.10;99.90
64855;DHT22;51321;50.428;8.378;2023-02-04T16:00:52;7.00;99.90
64855;DHT22;51321;50.428;8.378;2023-02-04T16:03:33;6.90;99.90
64855;DHT22;51321;50.428;8.378;2023-02-04T16:06:14;6.80;99.90
64855;DHT22;51321;50.428;8.378;2023-02-04T16:08:55;6.70;99.90
64855;DHT22;51321;50.428;8.378;2023-02-04T16:11:37;6.70;99.90
64855;DHT22;51321;50.428;8.378;2023-02-04T16:14:19;6.60;99.90
64855;DHT22;51321;50.428;8.378;2023-02-04T16:17:00;6.50;99.90
64855;DHT22;51321;50.428;8.378;2023-02-04T16:19:41;6.50;99.90
64855;DHT22;51321;50.428;8.378;2023-02-04T16:22:22;6.40;99.90
64855;DHT22;51321;50.428;8.378;2023-02-04T16:25:03;6.40;99.90
64855;DHT22;51321;50.428;8.378;2023-02-04T16:27:46;6.30;99.90
64855;DHT22;51321;50.428;8.378;2023-02-04T16:30:27;6.20;99.90
64855;DHT22;51321;50.428;8.378;2023-02-04T16:33:07;6.20;99.90
64855;DHT22;51321;50.428;8.378;2023-02-04T16:35:59;6.10;99.90
64855;DHT22;51321;50.428;8.378;2023-02-04T16:38:40;6.00;99.90
64855;DHT22;51321;50.428;8.378;2023-02-04T16:41:22;5.90;99.90
64855;DHT22;51321;50.428;8.378;2023-02-04T16:44:04;5.90;99.90
64855;DHT22;51321;50.428;8.378;2023-02-04T16:46:45;5.90;99.90
64855;DHT22;51321;50.428;8.378;2023-02-04T16:49:27;5.90;99.90
64855;DHT22;51321;50.428;8.378;2023-02-04T16:52:08;5.90;99.90
64855;DHT22;51321;50.428;8.378;2023-02-04T16:54:49;5.90;99.90
64855;DHT22;51321;50.428;8.378;2023-02-04T16:57:30;5.90;99.90
64855;DHT22;51321;50.428;8.378;2023-02-04T17:00:13;5.90;99.90
64855;DHT22;51321;50.428;8.378;2023-02-04T17:02:54;5.70;99.90
64855;DHT22;51321;50.428;8.378;2023-02-04T17:05:36;5.60;99.90
64855;DHT22;51321;50.428;8.378;2023-02-04T17:08:16;5.60;99.90
64855;DHT22;51321;50.428;8.378;2023-02-04T17:10:58;5.50;99.90
64855;DHT22;51321;50.428;8.378;2023-02-04T17:13:57;5.60;99.90
64855;DHT22;51321;50.428;8.378;2023-02-04T17:16:40;5.60;99.90
64855;DHT22;51321;50.428;8.378;2023-02-04T17:19:21;5.50;99.90